createdAt,value
2022-10-23T00:01:32.069Z,18.95
2022-10-23T00:04:35.047Z,18.30
2022-10-23T00:07:40.148Z,16.87
2022-10-23T00:10:46.395Z,17.60
2022-10-23T00:13:49.635Z,18.85
2022-10-23T00:16:52.627Z,17.90
2022-10-23T00:19:55.234Z,17.87
2022-10-23T00:22:58.142Z,18.95
2022-10-23T00:26:03.426Z,17.40
2022-10-23T00:29:06.844Z,18.67
2022-10-23T00:32:09.415Z,18.62
2022-10-23T00:35:12.245Z,18.42
2022-10-23T00:38:14.755Z,17.98
2022-10-23T00:41:24.798Z,18.40
2022-10-23T00:44:30.551Z,17.12
2022-10-23T00:47:33.369Z,16.85
2022-10-23T00:50:36.071Z,17.62
2022-10-23T00:53:39.413Z,17.87
2022-10-23T00:56:44.321Z,17.30
2022-10-23T00:59:47.162Z,17.95
2022-10-23T01:02:49.964Z,17.65
2022-10-23T01:06:13.720Z,18.25
2022-10-23T01:09:22.522Z,17.48
2022-10-23T01:12:35.563Z,17.87
2022-10-23T01:15:47.024Z,17.73
2022-10-23T01:19:03.999Z,17.98
2022-10-23T01:22:12.427Z,17.80
2022-10-23T01:25:32.164Z,18.05
2022-10-23T01:28:42.244Z,17.33
2022-10-23T01:31:56.652Z,19.12
2022-10-23T01:35:28.104Z,17.17
2022-10-23T01:38:38.174Z,18.33
2022-10-23T01:41:50.471Z,18.80
2022-10-23T01:45:12.386Z,18.40
2022-10-23T01:48:18.845Z,18.35
2022-10-23T01:51:24.541Z,17.62
2022-10-23T01:54:30.514Z,15.68
2022-10-23T01:57:34.081Z,16.65
2022-10-23T02:00:39.288Z,15.00
2022-10-23T02:03:44.239Z,16.60
2022-10-23T02:06:46.771Z,16.05
2022-10-23T02:09:49.886Z,17.33
2022-10-23T02:13:04.734Z,16.17
2022-10-23T02:16:24.477Z,15.60
2022-10-23T02:19:35.800Z,15.63
2022-10-23T02:22:43.241Z,16.77
2022-10-23T02:25:53.305Z,16.15
2022-10-23T02:29:08.807Z,16.17
2022-10-23T02:32:12.439Z,15.93
2022-10-23T02:35:18.002Z,15.60
2022-10-23T02:38:33.828Z,17.00
2022-10-23T02:42:06.509Z,16.30
2022-10-23T02:45:15.757Z,15.63
2022-10-23T02:48:27.227Z,15.60
2022-10-23T02:51:58.946Z,16.62
2022-10-23T02:55:19.542Z,16.25
2022-10-23T02:58:46.877Z,15.65
2022-10-23T03:01:57.725Z,15.70
2022-10-23T03:05:00.901Z,15.23
2022-10-23T03:08:05.741Z,15.63
2022-10-23T03:11:08.382Z,15.93
2022-10-23T03:14:12.723Z,16.20
2022-10-23T03:17:15.239Z,16.12
2022-10-23T03:20:21.904Z,16.20
2022-10-23T03:23:24.566Z,16.10
2022-10-23T03:26:27.397Z,15.57
2022-10-23T03:29:30.072Z,15.73
2022-10-23T03:32:33.090Z,16.55
2022-10-23T03:35:35.895Z,16.03
2022-10-23T03:38:38.807Z,15.75
2022-10-23T03:41:41.546Z,16.77
2022-10-23T03:44:44.594Z,16.60
2022-10-23T03:47:47.116Z,16.92
2022-10-23T03:50:50.059Z,16.20
2022-10-23T03:53:52.731Z,16.25
2022-10-23T03:56:57.515Z,15.85
2022-10-23T04:00:01.301Z,16.20
2022-10-23T04:03:05.332Z,16.45
2022-10-23T04:06:12.640Z,16.77
2022-10-23T04:09:15.281Z,17.15
2022-10-23T04:12:18.470Z,15.80
2022-10-23T04:15:21.106Z,15.80
2022-10-23T04:18:26.065Z,16.70
2022-10-23T04:21:28.601Z,15.87
2022-10-23T04:24:31.371Z,15.80
2022-10-23T04:27:34.501Z,17.23
2022-10-23T04:30:37.539Z,16.65
2022-10-23T04:33:40.577Z,17.12
2022-10-23T04:36:43.514Z,16.73
2022-10-23T04:39:46.125Z,17.05
2022-10-23T04:42:48.947Z,17.90
2022-10-23T04:45:51.709Z,16.33
2022-10-23T04:48:55.523Z,17.08
2022-10-23T04:51:58.341Z,16.63
2022-10-23T04:55:05.061Z,16.00
2022-10-23T04:58:07.730Z,15.82
2022-10-23T05:01:10.968Z,16.80
2022-10-23T05:04:14.072Z,17.10
2022-10-23T05:07:17.809Z,16.60
2022-10-23T05:10:21.149Z,17.90
2022-10-23T05:13:23.999Z,17.42
2022-10-23T05:16:46.935Z,17.67
2022-10-23T05:19:57.576Z,17.25
2022-10-23T05:23:00.806Z,16.77
2022-10-23T05:26:04.896Z,16.60
2022-10-23T05:29:07.669Z,16.10
2022-10-23T05:32:13.868Z,16.90
2022-10-23T05:35:19.892Z,16.85
2022-10-23T05:38:30.026Z,16.03
2022-10-23T05:41:32.597Z,14.98
2022-10-23T05:44:35.562Z,16.15
2022-10-23T05:47:38.592Z,14.65
2022-10-23T05:50:41.848Z,15.50
2022-10-23T05:53:50.063Z,14.90
2022-10-23T05:56:55.645Z,15.27
2022-10-23T05:59:58.428Z,15.98
2022-10-23T06:03:14.413Z,14.73
2022-10-23T06:06:17.807Z,14.50
2022-10-23T06:09:21.085Z,13.20
2022-10-23T06:12:24.785Z,14.30
2022-10-23T06:15:28.502Z,14.23
2022-10-23T06:18:32.675Z,13.38
2022-10-23T06:21:39.913Z,13.40
2022-10-23T06:24:44.130Z,13.70
2022-10-23T06:27:46.871Z,15.30
2022-10-23T06:30:49.877Z,14.63
2022-10-23T06:33:53.927Z,15.30
2022-10-23T06:36:56.967Z,14.68
2022-10-23T06:40:00.088Z,15.17
2022-10-23T06:43:04.888Z,14.02
2022-10-23T06:46:08.671Z,15.30
2022-10-23T06:49:18.974Z,16.12
2022-10-23T06:52:45.259Z,16.80
2022-10-23T06:55:44.552Z,17.13
2022-10-23T06:58:47.053Z,18.75
2022-10-23T07:01:50.299Z,18.95
2022-10-23T07:04:53.084Z,18.23
2022-10-23T07:07:56.848Z,17.85
2022-10-23T07:11:06.671Z,17.30
2022-10-23T07:14:09.953Z,17.85
2022-10-23T07:17:12.687Z,19.05
2022-10-23T07:20:15.670Z,18.52
2022-10-23T07:23:18.223Z,19.62
2022-10-23T07:26:21.195Z,19.53
2022-10-23T07:29:24.046Z,18.10
2022-10-23T07:32:28.633Z,18.10
2022-10-23T07:35:38.421Z,16.37
2022-10-23T07:38:42.404Z,17.80
2022-10-23T07:41:45.215Z,17.83
2022-10-23T07:44:48.039Z,16.17
2022-10-23T07:47:51.940Z,16.48
2022-10-23T07:51:00.874Z,14.90
2022-10-23T07:54:03.619Z,15.05
2022-10-23T07:57:07.522Z,14.33
2022-10-23T08:00:11.486Z,15.50
2022-10-23T08:03:15.954Z,15.05
2022-10-23T08:06:19.154Z,13.30
2022-10-23T08:09:22.244Z,12.48
2022-10-23T08:12:25.667Z,12.60
2022-10-23T08:15:29.758Z,11.38
2022-10-23T08:18:33.426Z,13.00
2022-10-23T08:21:36.706Z,11.80
2022-10-23T08:24:40.167Z,12.07
2022-10-23T08:27:43.325Z,11.30
2022-10-23T08:30:46.345Z,12.40
2022-10-23T08:36:57.100Z,10.75
2022-10-23T08:39:59.690Z,11.12
2022-10-23T08:43:13.594Z,10.80
2022-10-23T08:46:18.302Z,10.27
2022-10-23T08:49:54.691Z,9.45
2022-10-23T08:53:15.548Z,8.85
2022-10-23T08:56:35.127Z,9.10
2022-10-23T08:59:42.783Z,8.97
2022-10-23T09:02:48.947Z,9.00
2022-10-23T09:06:08.858Z,8.93
2022-10-23T09:09:27.239Z,8.32
2022-10-23T09:12:31.484Z,8.75
2022-10-23T09:15:42.886Z,8.10
2022-10-23T09:18:47.450Z,7.60
2022-10-23T09:21:50.477Z,7.82
2022-10-23T09:24:54.015Z,7.60
2022-10-23T09:28:01.592Z,7.32
2022-10-23T09:31:12.034Z,6.80
2022-10-23T09:34:23.451Z,6.62
2022-10-23T09:37:31.998Z,6.57
2022-10-23T09:40:43.211Z,6.00
2022-10-23T09:43:45.850Z,6.15
2022-10-23T09:47:11.364Z,6.60
2022-10-23T09:50:20.408Z,5.15
2022-10-23T09:53:29.078Z,5.43
2022-10-23T09:56:34.177Z,5.80
2022-10-23T09:59:37.239Z,4.90
2022-10-23T10:02:41.983Z,4.50
2022-10-23T10:05:56.617Z,4.12
2022-10-23T10:09:05.903Z,4.07
2022-10-23T10:12:24.712Z,4.60
2022-10-23T10:15:48.008Z,4.30
2022-10-23T10:19:32.611Z,3.40
2022-10-23T10:22:56.611Z,3.65
2022-10-23T10:26:01.745Z,3.70
2022-10-23T10:29:30.869Z,3.90
2022-10-23T10:32:52.041Z,3.78
2022-10-23T10:35:57.807Z,2.37
2022-10-23T10:39:03.264Z,2.17
2022-10-23T10:42:14.067Z,1.90
2022-10-23T10:45:27.731Z,3.22
2022-10-23T10:48:44.010Z,3.28
2022-10-23T10:52:27.558Z,3.77
2022-10-23T10:55:40.331Z,4.22
2022-10-23T10:58:49.078Z,3.15
2022-10-23T11:02:06.163Z,3.47
2022-10-23T11:05:23.031Z,2.78
2022-10-23T11:08:50.052Z,3.30
2022-10-23T11:12:03.573Z,3.20
2022-10-23T11:15:14.111Z,2.80
2022-10-23T11:18:24.414Z,2.78
2022-10-23T11:21:34.363Z,2.53
2022-10-23T11:24:45.401Z,2.87
2022-10-23T11:28:12.703Z,2.70
2022-10-23T11:31:44.639Z,3.00
2022-10-23T11:35:06.175Z,3.17
2022-10-23T11:38:19.286Z,3.08
2022-10-23T11:41:26.781Z,2.77
2022-10-23T11:44:44.055Z,2.97
2022-10-23T11:47:57.633Z,3.60
2022-10-23T11:51:02.849Z,3.17
2022-10-23T11:54:17.159Z,2.30
2022-10-23T11:57:20.295Z,2.10
2022-10-23T12:00:23.869Z,1.60
2022-10-23T12:03:40.976Z,2.20
2022-10-23T12:06:56.907Z,2.05
2022-10-23T12:10:06.141Z,2.47
2022-10-23T12:13:31.069Z,2.53
2022-10-23T12:16:35.493Z,2.05
2022-10-23T12:19:48.023Z,2.00
2022-10-23T12:23:09.627Z,1.87
2022-10-23T12:26:36.371Z,1.60
2022-10-23T12:29:57.202Z,1.40
2022-10-23T12:33:15.110Z,1.30
2022-10-23T12:36:42.380Z,1.60
2022-10-23T12:39:52.331Z,1.60
2022-10-23T12:42:56.444Z,1.58
2022-10-23T12:46:04.819Z,1.37
2022-10-23T12:49:20.041Z,1.70
2022-10-23T12:52:24.979Z,2.22
2022-10-23T12:55:45.272Z,2.00
2022-10-23T12:58:53.598Z,2.75
2022-10-23T13:01:56.492Z,2.20
2022-10-23T13:05:01.591Z,2.75
2022-10-23T13:08:05.528Z,2.40
2022-10-23T13:11:16.729Z,2.90
2022-10-23T13:14:31.110Z,2.17
2022-10-23T13:17:58.628Z,2.70
2022-10-23T13:24:19.162Z,2.67
2022-10-23T13:27:27.035Z,2.80
2022-10-23T13:30:37.991Z,2.60
2022-10-23T13:33:50.974Z,2.80
2022-10-23T13:36:58.567Z,2.55
2022-10-23T13:40:03.971Z,2.42
2022-10-23T13:43:14.596Z,2.67
2022-10-23T13:46:22.868Z,2.17
2022-10-23T13:49:25.583Z,2.87
2022-10-23T13:52:28.476Z,2.72
2022-10-23T13:55:31.694Z,2.20
2022-10-23T13:58:34.786Z,2.58
2022-10-23T14:01:38.158Z,3.20
2022-10-23T14:04:41.143Z,2.83
2022-10-23T14:07:44.030Z,4.15
2022-10-23T14:10:47.370Z,3.97
2022-10-23T14:13:50.784Z,3.75
2022-10-23T14:16:54.791Z,5.55
2022-10-23T14:19:57.364Z,4.70
2022-10-23T14:23:00.224Z,5.07
2022-10-23T14:26:04.040Z,4.32
2022-10-23T14:29:12.386Z,4.78
2022-10-23T14:32:21.171Z,5.25
2022-10-23T14:35:25.540Z,5.40
2022-10-23T14:38:28.331Z,5.00
2022-10-23T14:41:31.085Z,5.00
2022-10-23T14:44:33.751Z,4.85
2022-10-23T14:47:36.593Z,5.07
2022-10-23T14:50:44.470Z,5.17
2022-10-23T14:53:48.369Z,5.40
2022-10-23T14:56:50.907Z,9.57
2022-10-23T14:59:56.815Z,7.05
2022-10-23T15:02:59.930Z,8.27
2022-10-23T15:06:02.775Z,7.97
2022-10-23T15:09:05.783Z,7.95
2022-10-23T15:12:08.673Z,6.95
2022-10-23T15:15:11.467Z,7.60
2022-10-23T15:18:14.810Z,8.43
2022-10-23T15:21:17.709Z,7.83
2022-10-23T15:24:23.232Z,6.45
2022-10-23T15:27:25.755Z,6.12
2022-10-23T15:30:28.735Z,5.72
2022-10-23T15:33:31.338Z,7.12
2022-10-23T15:36:34.620Z,7.53
2022-10-23T15:39:37.154Z,8.30
2022-10-23T15:42:41.080Z,7.03
2022-10-23T15:45:45.242Z,7.10
2022-10-23T15:48:48.251Z,6.40
2022-10-23T15:51:51.858Z,5.90
2022-10-23T15:54:54.883Z,6.30
2022-10-23T15:58:02.017Z,7.32
2022-10-23T16:01:06.668Z,6.47
2022-10-23T16:04:12.503Z,6.53
2022-10-23T16:07:15.226Z,7.03
2022-10-23T16:10:18.821Z,6.72
2022-10-23T16:13:21.338Z,6.43
2022-10-23T16:16:24.685Z,6.62
2022-10-23T16:19:27.304Z,5.20
2022-10-23T16:22:30.380Z,6.37
2022-10-23T16:25:36.445Z,5.55
2022-10-23T16:28:39.409Z,5.80
2022-10-23T16:31:42.264Z,6.80
2022-10-23T16:34:45.748Z,6.68
2022-10-23T16:37:48.495Z,5.83
2022-10-23T16:40:53.272Z,5.70
2022-10-23T16:44:00.692Z,4.65
2022-10-23T16:47:04.791Z,4.55
2022-10-23T16:50:08.053Z,8.27
2022-10-23T16:53:10.868Z,7.00
2022-10-23T16:56:18.059Z,6.50
2022-10-23T16:59:21.114Z,5.97
2022-10-23T17:02:24.004Z,5.50
2022-10-23T17:05:27.149Z,5.22
2022-10-23T17:08:30.090Z,5.40
2022-10-23T17:11:35.017Z,7.10
2022-10-23T17:14:38.740Z,7.35
2022-10-23T17:17:43.060Z,7.32
2022-10-23T17:20:45.963Z,7.82
2022-10-23T17:23:49.513Z,7.00
2022-10-23T17:26:54.698Z,6.43
2022-10-23T17:29:58.137Z,6.30
2022-10-23T17:33:01.971Z,10.73
2022-10-23T17:36:05.644Z,8.65
2022-10-23T17:39:10.423Z,6.63
2022-10-23T17:42:13.337Z,7.22
2022-10-23T17:45:15.884Z,6.93
2022-10-23T17:48:18.846Z,6.78
2022-10-23T17:51:24.031Z,7.75
2022-10-23T17:54:28.589Z,6.53
2022-10-23T17:57:31.973Z,4.57
2022-10-23T18:00:36.956Z,5.10
2022-10-23T18:03:40.642Z,5.93
2022-10-23T18:06:48.572Z,7.37
2022-10-23T18:09:51.591Z,5.33
2022-10-23T18:12:54.777Z,6.03
2022-10-23T18:16:05.978Z,6.35
2022-10-23T18:19:09.087Z,5.55
2022-10-23T18:22:12.298Z,5.95
2022-10-23T18:25:18.688Z,5.83
2022-10-23T18:28:23.386Z,5.68
2022-10-23T18:31:29.643Z,6.22
2022-10-23T18:34:32.950Z,6.07
2022-10-23T18:37:41.224Z,6.55
2022-10-23T18:40:44.775Z,6.83
2022-10-23T18:43:47.597Z,7.05
2022-10-23T18:46:51.311Z,7.82
2022-10-23T18:49:54.047Z,7.07
2022-10-23T18:52:57.351Z,7.85
2022-10-23T18:56:00.855Z,7.67
2022-10-23T18:59:06.383Z,8.07
2022-10-23T19:02:11.160Z,7.72
2022-10-23T19:05:15.246Z,7.25
2022-10-23T19:08:18.133Z,6.20
2022-10-23T19:11:23.392Z,6.43
2022-10-23T19:14:28.764Z,5.87
2022-10-23T19:17:32.857Z,6.00
2022-10-23T19:20:42.894Z,5.97
2022-10-23T19:23:47.753Z,6.53
2022-10-23T19:26:50.498Z,6.13
2022-10-23T19:29:54.707Z,6.85
2022-10-23T19:32:57.696Z,6.50
2022-10-23T19:36:05.212Z,6.32
2022-10-23T19:39:08.617Z,5.93
2022-10-23T19:42:12.443Z,5.50
2022-10-23T19:45:15.786Z,5.70
2022-10-23T19:48:19.160Z,6.03
2022-10-23T19:51:24.593Z,5.12
2022-10-23T19:54:28.528Z,6.12
2022-10-23T19:57:37.441Z,4.97
2022-10-23T20:00:41.098Z,5.07
2022-10-23T20:03:45.668Z,5.32
2022-10-23T20:06:49.288Z,5.12
2022-10-23T20:09:52.737Z,5.60
2022-10-23T20:13:02.365Z,5.10
2022-10-23T20:16:23.707Z,5.12
2022-10-23T20:19:27.651Z,5.10
2022-10-23T20:22:30.959Z,5.35
2022-10-23T20:25:33.760Z,4.60
2022-10-23T20:28:37.376Z,5.10
2022-10-23T20:31:40.594Z,4.87
2022-10-23T20:34:43.768Z,5.07
2022-10-23T20:37:46.722Z,4.68
2022-10-23T20:40:49.908Z,5.12
2022-10-23T20:43:53.191Z,5.10
2022-10-23T20:46:56.373Z,5.85
2022-10-23T20:49:59.069Z,5.43
2022-10-23T20:53:02.126Z,5.07
2022-10-23T20:56:15.492Z,5.18
2022-10-23T20:59:18.981Z,5.33
2022-10-23T21:02:22.083Z,5.85
2022-10-23T21:05:25.063Z,5.35
2022-10-23T21:08:28.010Z,5.00
2022-10-23T21:11:32.547Z,5.93
2022-10-23T21:14:37.787Z,4.87
2022-10-23T21:17:41.165Z,5.12
2022-10-23T21:20:45.125Z,5.28
2022-10-23T21:23:49.914Z,5.78
2022-10-23T21:26:52.742Z,6.65
2022-10-23T21:29:55.616Z,6.73
2022-10-23T21:32:58.429Z,6.43
2022-10-23T21:36:13.618Z,6.60
2022-10-23T21:39:16.808Z,6.90
2022-10-23T21:42:19.759Z,7.37
2022-10-23T21:45:22.398Z,7.60
2022-10-23T21:48:28.467Z,8.13
2022-10-23T21:51:35.397Z,7.85
2022-10-23T21:54:40.664Z,7.72
2022-10-23T21:57:43.112Z,8.32
2022-10-23T22:00:46.068Z,8.37
2022-10-23T22:03:49.305Z,7.72
2022-10-23T22:06:51.854Z,7.90
2022-10-23T22:09:54.631Z,7.60
2022-10-23T22:12:57.144Z,8.18
2022-10-23T22:16:04.167Z,7.73
2022-10-23T22:19:07.030Z,7.72
2022-10-23T22:22:10.053Z,8.13
2022-10-23T22:25:12.536Z,8.15
2022-10-23T22:28:15.493Z,8.88
2022-10-23T22:31:20.711Z,9.03
2022-10-23T22:34:52.680Z,9.38
2022-10-23T22:37:55.167Z,9.13
2022-10-23T22:41:00.850Z,8.55
2022-10-23T22:44:03.444Z,9.07
2022-10-23T22:47:06.928Z,8.70
2022-10-23T22:50:09.627Z,8.57
2022-10-23T22:53:12.487Z,8.35
2022-10-23T22:56:17.971Z,8.98
2022-10-23T22:59:20.833Z,8.52
2022-10-23T23:02:23.991Z,9.10
2022-10-23T23:05:26.962Z,8.93
2022-10-23T23:08:29.612Z,7.72
2022-10-23T23:11:40.768Z,9.15
2022-10-23T23:14:54.567Z,7.90
2022-10-23T23:17:57.368Z,8.70
2022-10-23T23:21:04.486Z,8.65
2022-10-23T23:24:07.433Z,8.40
2022-10-23T23:27:10.019Z,9.13
2022-10-23T23:30:12.859Z,9.13
2022-10-23T23:33:19.019Z,8.73
2022-10-23T23:36:24.824Z,9.98
2022-10-23T23:39:28.584Z,9.85
2022-10-23T23:42:31.663Z,9.50
2022-10-23T23:45:34.291Z,10.18
2022-10-23T23:48:37.594Z,10.53
2022-10-23T23:51:40.032Z,10.60
2022-10-23T23:54:42.750Z,11.38
2022-10-23T23:57:45.646Z,10.70
